createdAt,value
2023-01-17T00:42:03.596Z,14.40
2023-01-17T00:44:55.114Z,14.60
2023-01-17T00:47:41.480Z,14.90
2023-01-17T00:50:50.390Z,11.50
2023-01-17T00:54:30.452Z,17.20
2023-01-17T00:57:21.762Z,17.40
2023-01-17T01:00:10.191Z,17.90
2023-01-17T01:02:59.715Z,14.80
2023-01-17T01:05:58.582Z,17.20
2023-01-17T01:08:58.607Z,20.00
2023-01-17T01:11:51.279Z,16.80
2023-01-17T01:15:00.542Z,19.50
2023-01-17T01:18:06.699Z,15.20
2023-01-17T01:21:23.124Z,17.40
2023-01-17T01:24:11.574Z,19.30
2023-01-17T01:27:07.564Z,15.70
2023-01-17T01:30:15.957Z,14.80
2023-01-17T01:33:18.439Z,16.50
2023-01-17T01:36:05.723Z,17.70
2023-01-17T01:38:35.523Z,14.80
2023-01-17T01:41:08.423Z,13.60
2023-01-17T01:43:48.691Z,14.40
2023-01-17T01:47:05.725Z,15.20
2023-01-17T01:49:48.832Z,14.80
2023-01-17T01:52:44.041Z,15.20
2023-01-17T01:55:28.776Z,17.30
2023-01-17T01:58:22.605Z,16.20
2023-01-17T02:01:06.468Z,16.80
2023-01-17T02:03:51.241Z,16.30
2023-01-17T02:06:25.130Z,16.30
2023-01-17T02:09:12.104Z,15.50
2023-01-17T02:11:49.587Z,19.00
2023-01-17T02:14:37.125Z,19.30
2023-01-17T02:17:46.457Z,20.30
2023-01-17T02:20:41.265Z,19.50
2023-01-17T02:23:20.015Z,17.30
2023-01-17T02:26:54.791Z,16.20
2023-01-17T02:30:16.316Z,20.00
2023-01-17T02:33:06.608Z,16.50
2023-01-17T02:36:11.073Z,16.30
2023-01-17T02:39:09.677Z,19.20
2023-01-17T02:41:52.084Z,17.80
2023-01-17T02:44:48.834Z,15.50
2023-01-17T02:47:21.507Z,18.00
2023-01-17T02:49:59.718Z,18.10
2023-01-17T02:53:22.478Z,14.60
2023-01-17T02:59:35.601Z,16.00
2023-01-17T03:02:38.503Z,14.60
2023-01-17T03:06:08.129Z,19.10
2023-01-17T03:08:49.213Z,13.50
2023-01-17T03:11:16.968Z,12.20
2023-01-17T03:13:57.365Z,12.20
2023-01-17T03:16:37.579Z,11.80
2023-01-17T03:19:09.913Z,15.40
2023-01-17T03:21:51.421Z,16.10
2023-01-17T03:24:22.301Z,12.00
2023-01-17T03:26:52.031Z,12.30
2023-01-17T03:29:25.100Z,13.40
2023-01-17T03:32:17.195Z,14.90
2023-01-17T03:35:00.740Z,14.30
2023-01-17T03:37:36.759Z,14.10
2023-01-17T03:40:55.375Z,15.90
2023-01-17T03:43:41.567Z,19.00
2023-01-17T03:46:19.735Z,17.60
2023-01-17T03:48:53.081Z,18.10
2023-01-17T03:51:43.466Z,15.60
2023-01-17T03:54:10.688Z,16.20
2023-01-17T03:56:40.399Z,15.00
2023-01-17T03:59:14.423Z,14.40
2023-01-17T04:02:15.506Z,15.50
2023-01-17T04:05:02.803Z,15.20
2023-01-17T04:07:41.436Z,14.20
2023-01-17T04:10:12.981Z,15.30
2023-01-17T10:16:53.241Z,32.20
2023-01-17T10:19:43.806Z,32.90
2023-01-17T10:22:58.861Z,32.90
2023-01-17T10:25:57.261Z,32.00
2023-01-17T10:28:33.532Z,32.40
2023-01-17T10:31:21.032Z,32.20
2023-01-17T10:33:53.183Z,34.20
2023-01-17T10:36:23.832Z,35.50
2023-01-17T10:38:58.284Z,22.00
2023-01-17T10:41:35.230Z,33.30
2023-01-17T10:44:48.137Z,31.20
2023-01-17T10:47:22.360Z,32.80
2023-01-17T10:49:53.981Z,38.60
2023-01-17T10:52:45.763Z,24.90
2023-01-17T10:55:40.504Z,29.10
2023-01-17T10:58:15.633Z,31.60
2023-01-17T11:00:52.258Z,33.00
2023-01-17T11:03:24.091Z,35.70
2023-01-17T11:08:59.505Z,34.20
2023-01-17T11:14:07.917Z,27.60
2023-01-17T11:16:55.236Z,34.50
2023-01-17T11:19:36.062Z,30.40
2023-01-17T11:22:05.206Z,36.10
2023-01-17T11:24:36.512Z,36.70
2023-01-17T11:27:44.788Z,35.10
2023-01-17T11:30:21.519Z,35.90
2023-01-17T11:33:04.383Z,37.30
2023-01-17T11:35:32.516Z,37.50
2023-01-17T11:38:40.022Z,36.00
2023-01-17T11:41:20.575Z,33.10
2023-01-17T11:43:55.413Z,25.10
2023-01-17T11:46:25.583Z,29.70
2023-01-17T11:49:00.994Z,29.70
2023-01-17T11:51:33.970Z,29.20
2023-01-17T11:54:28.992Z,30.20
2023-01-17T11:57:02.671Z,34.30
2023-01-17T11:59:33.629Z,27.00
2023-01-17T12:02:32.099Z,34.40
2023-01-17T16:13:26.113Z,39.50
2023-01-17T16:15:53.275Z,39.30
2023-01-17T16:18:29.421Z,34.10
2023-01-17T16:21:00.856Z,38.50
2023-01-17T16:23:28.646Z,37.00
2023-01-17T16:25:56.676Z,35.20
2023-01-17T16:28:27.443Z,37.10
2023-01-17T16:30:57.464Z,41.30
2023-01-17T16:33:24.597Z,35.10
2023-01-17T16:35:53.464Z,36.80
2023-01-17T16:38:20.758Z,35.80
2023-01-17T16:40:48.322Z,34.30
2023-01-17T16:43:17.303Z,38.30
2023-01-17T16:45:46.931Z,33.20
2023-01-17T16:48:14.374Z,37.90
2023-01-17T16:50:48.445Z,36.50
2023-01-17T16:53:16.560Z,38.40
2023-01-17T16:55:46.583Z,37.90
2023-01-17T17:00:43.129Z,38.90
2023-01-17T17:03:20.731Z,37.80
2023-01-17T17:05:58.423Z,39.90
2023-01-17T17:08:25.897Z,36.30
2023-01-17T17:10:53.236Z,43.90
2023-01-17T17:13:20.592Z,42.10
2023-01-17T17:15:48.176Z,37.40
2023-01-17T17:18:16.757Z,37.40
2023-01-17T17:20:44.096Z,33.80
2023-01-17T17:23:11.344Z,40.70
2023-01-17T17:25:39.001Z,35.00
2023-01-17T17:28:08.921Z,38.90
2023-01-17T17:30:36.583Z,41.00
2023-01-17T17:33:06.607Z,35.10
2023-01-17T17:35:42.967Z,42.10
2023-01-17T17:38:12.473Z,34.90
2023-01-17T17:40:39.623Z,44.20
2023-01-17T17:43:06.993Z,43.30
2023-01-17T17:45:34.127Z,43.30
2023-01-17T17:48:01.289Z,46.20
2023-01-17T17:50:28.633Z,44.60
2023-01-17T17:52:55.685Z,43.80
2023-01-17T17:55:23.351Z,40.60
2023-01-17T17:57:53.931Z,36.20
2023-01-17T18:00:23.379Z,37.80
2023-01-17T18:02:50.632Z,38.90
2023-01-17T18:05:17.887Z,43.30
2023-01-17T18:07:45.144Z,42.50
2023-01-17T18:10:12.596Z,36.50
2023-01-17T18:12:39.849Z,41.40
2023-01-17T18:15:07.929Z,40.30
2023-01-17T18:17:35.517Z,38.00
2023-01-17T18:20:02.570Z,42.70
2023-01-17T18:22:29.819Z,37.00
2023-01-17T18:25:00.129Z,45.40
2023-01-17T18:27:27.599Z,34.20
2023-01-17T18:29:58.702Z,36.20
2023-01-17T18:32:26.287Z,36.20
2023-01-17T18:34:53.768Z,38.10
2023-01-17T18:37:22.804Z,40.30
2023-01-17T18:39:52.504Z,38.20
2023-01-17T18:42:21.769Z,39.90
2023-01-17T18:44:49.704Z,39.60
2023-01-17T18:47:16.742Z,45.50
2023-01-17T18:49:44.079Z,48.10
2023-01-17T18:52:12.280Z,55.10
2023-01-17T18:54:40.776Z,42.30
2023-01-17T18:57:08.139Z,44.10
2023-01-17T18:59:35.546Z,46.40
2023-01-17T19:02:02.902Z,42.10
2023-01-17T19:04:34.282Z,45.70
2023-01-17T19:07:01.741Z,50.10
2023-01-17T19:09:28.788Z,39.70
2023-01-17T19:11:57.270Z,42.20
2023-01-17T19:14:25.661Z,42.30
2023-01-17T19:16:54.069Z,46.50
2023-01-17T19:19:21.606Z,43.00
2023-01-17T19:21:51.720Z,45.20
2023-01-17T19:24:18.978Z,45.90
2023-01-17T19:26:51.452Z,42.10
2023-01-17T19:29:31.705Z,39.20
2023-01-17T19:31:59.184Z,41.80
2023-01-17T19:34:26.556Z,39.90
2023-01-17T19:36:56.991Z,44.50
2023-01-17T19:39:27.270Z,37.60
2023-01-17T19:41:55.242Z,40.30
2023-01-17T19:44:27.723Z,32.30
2023-01-17T19:46:56.709Z,38.40
